Time;durP1;ratioP1;P1;durP2;ratioP2;P2;SDS_P1;SDS_P2;PMS_P1;PMS_P2;Temp;Humidity;BMP_temperature;BMP_pressure;BME280_temperature;BME280_humidity;BME280_pressure;Samples;Min_cycle;Max_cycle;Signal;HPM_P1;HPM_P2
2021/12/03 00:01:30;;;;;;;14.25;8.70;;;;;;;1.73;80.32;100881.03;3565481;40;20064;-63
2021/12/03 00:03:56;;;;;;;21.05;10.85;;;;;;;1.73;80.63;100873.06;3567726;40;20758;-63
2021/12/03 00:06:22;;;;;;;19.33;10.00;;;;;;;1.44;79.73;100823.47;3564981;40;20115;-63
2021/12/03 00:08:48;;;;;;;36.15;26.23;;;;;;;1.62;79.33;100860.97;3566084;40;20407;-63
2021/12/03 00:11:15;;;;;;;23.52;12.48;;;;;;;1.72;79.80;100881.94;3569192;40;20052;-63
2021/12/03 00:13:43;;;;;;;16.17;10.35;;;;;;;1.73;79.63;100881.03;3568087;40;20068;-63
2021/12/03 00:16:11;;;;;;;17.00;10.52;;;;;;;1.75;80.48;100876.56;3569154;40;20123;-63
2021/12/03 00:18:36;;;;;;;18.45;11.38;;;;;;;1.74;80.51;100874.81;3565444;40;20049;-63
2021/12/03 00:21:07;;;;;;;24.20;12.98;;;;;;;1.72;80.22;100876.66;3567066;40;20066;-63
2021/12/03 00:23:33;;;;;;;17.50;12.63;;;;;;;1.65;80.07;100873.28;3567646;40;20092;-63
2021/12/03 00:26:01;;;;;;;25.92;15.60;;;;;;;1.72;80.81;100887.25;3568996;40;20053;-63
2021/12/03 00:28:28;;;;;;;22.35;13.35;;;;;;;1.71;80.29;100885.47;3566036;40;20061;-63
2021/12/03 00:30:54;;;;;;;20.15;12.55;;;;;;;1.68;80.31;100881.16;3566686;40;20405;-63
2021/12/03 00:33:20;;;;;;;20.00;12.65;;;;;;;1.65;79.61;100880.34;3568348;40;20053;-62
2021/12/03 00:35:46;;;;;;;21.48;13.68;;;;;;;1.68;80.89;100885.56;3570365;40;20068;-63
2021/12/03 00:38:12;;;;;;;21.27;13.02;;;;;;;1.68;81.04;100890.84;3571496;40;20056;-63
2021/12/03 00:40:39;;;;;;;18.20;13.57;;;;;;;1.39;79.97;100847.41;3569439;40;20053;-63
2021/12/03 00:43:07;;;;;;;22.90;14.23;;;;;;;1.63;80.74;100888.34;3557837;40;20104;-62
2021/12/03 00:45:34;;;;;;;20.02;12.88;;;;;;;1.58;80.53;100875.19;3559326;40;20082;-63
2021/12/03 00:48:01;;;;;;;20.60;13.90;;;;;;;1.64;80.26;100890.06;3570684;40;20383;-63
2021/12/03 00:50:29;;;;;;;25.65;15.80;;;;;;;1.62;80.70;100887.47;3569913;40;20284;-63
2021/12/03 00:52:56;;;;;;;21.92;15.75;;;;;;;1.63;81.12;100889.19;3569129;40;20123;-63
2021/12/03 00:55:28;;;;;;;30.52;17.23;;;;;;;1.65;80.57;100888.28;3570100;40;20097;-63
2021/12/03 00:57:54;;;;;;;24.58;16.38;;;;;;;1.63;80.25;100899.78;3568813;40;20049;-63
2021/12/03 01:00:29;;;;;;;27.98;17.55;;;;;;;1.61;81.10;100892.78;3571944;40;20558;-62
2021/12/03 01:02:59;;;;;;;25.38;17.30;;;;;;;1.61;81.10;100900.72;3570195;40;20280;-63
2021/12/03 01:05:26;;;;;;;27.45;17.40;;;;;;;1.63;81.04;100898.94;3567193;40;20061;-63
2021/12/03 01:07:52;;;;;;;28.88;18.17;;;;;;;1.62;80.85;100892.75;3560675;40;20359;-62
2021/12/03 01:10:19;;;;;;;26.23;18.73;;;;;;;1.63;81.14;100896.28;3568473;40;20064;-63
2021/12/03 01:12:45;;;;;;;31.48;18.45;;;;;;;1.44;80.78;100874.66;3569122;40;20060;-62
2021/12/03 01:15:17;;;;;;;33.50;22.45;;;;;;;1.62;81.60;100908.66;3569700;40;20064;-63
2021/12/03 01:17:44;;;;;;;36.13;20.83;;;;;;;1.62;81.01;100906.00;3568674;40;20068;-63
2021/12/03 01:20:13;;;;;;;36.80;20.63;;;;;;;1.64;81.09;100900.66;3569165;40;20057;-64
2021/12/03 01:22:41;;;;;;;27.27;18.45;;;;;;;1.48;81.73;100880.75;3570731;40;20068;-64
2021/12/03 01:25:11;;;;;;;29.52;19.88;;;;;;;1.63;80.96;100909.53;3568228;40;20435;-64
2021/12/03 01:27:37;;;;;;;27.73;18.85;;;;;;;1.66;80.69;100913.88;3566838;40;20163;-64
2021/12/03 01:30:09;;;;;;;31.88;19.08;;;;;;;1.66;81.61;100914.75;3559082;40;20052;-64
2021/12/03 01:32:35;;;;;;;29.40;18.88;;;;;;;1.68;81.21;100912.06;3566059;40;20056;-64
2021/12/03 01:35:01;;;;;;;24.33;16.92;;;;;;;1.70;81.32;100913.75;3567223;40;20045;-62
2021/12/03 01:37:26;;;;;;;28.80;17.65;;;;;;;1.73;81.68;100910.19;3566839;40;20061;-63
2021/12/03 01:39:52;;;;;;;30.13;18.02;;;;;;;1.67;81.74;100921.78;3568989;40;20086;-64
2021/12/03 01:42:17;;;;;;;29.75;17.70;;;;;;;1.73;81.10;100915.47;3572236;40;20047;-64
2021/12/03 01:44:43;;;;;;;28.30;16.73;;;;;;;1.73;81.12;100915.47;3567110;40;20064;-63
2021/12/03 01:47:09;;;;;;;26.80;16.52;;;;;;;1.72;81.34;100905.78;3573732;40;20096;-64
2021/12/03 01:49:35;;;;;;;24.33;17.02;;;;;;;1.78;81.61;100909.16;3567762;40;20351;-63
2021/12/03 01:52:00;;;;;;;27.58;18.33;;;;;;;1.81;81.10;100903.78;3566968;40;20299;-64
2021/12/03 01:54:26;;;;;;;26.00;17.88;;;;;;;1.71;81.35;100869.59;3571748;40;20056;-64
2021/12/03 01:56:52;;;;;;;29.30;19.02;;;;;;;1.86;81.95;100890.41;3566627;40;20145;-63
2021/12/03 01:59:18;;;;;;;35.40;20.88;;;;;;;1.57;81.54;100841.66;3568501;40;20057;-63
2021/12/03 02:01:45;;;;;;;38.15;23.75;;;;;;;1.92;82.03;100887.59;3572095;40;20134;-63
2021/12/03 02:04:10;;;;;;;45.20;25.25;;;;;;;1.94;81.82;100899.06;3569549;40;20106;-63
2021/12/03 02:06:37;;;;;;;46.35;26.48;;;;;;;1.98;82.42;100906.00;3569017;40;20084;-63
2021/12/03 02:09:06;;;;;;;55.78;30.38;;;;;;;2.00;81.35;100912.16;3571971;40;20366;-64
2021/12/03 02:11:32;;;;;;;57.65;30.27;;;;;;;1.93;81.80;100892.00;3568363;40;20047;-64
2021/12/03 02:13:58;;;;;;;57.22;32.55;;;;;;;2.09;81.77;100908.38;3566641;40;20368;-64
2021/12/03 02:16:26;;;;;;;65.13;34.35;;;;;;;1.87;81.77;100863.00;3567270;40;20052;-64
2021/12/03 02:18:53;;;;;;;73.07;33.67;;;;;;;2.12;80.88;100915.38;3566937;40;20384;-64
2021/12/03 02:21:20;;;;;;;66.20;34.63;;;;;;;2.16;81.93;100917.03;3563909;40;20049;-63
2021/12/03 02:23:47;;;;;;;67.72;34.97;;;;;;;2.16;81.69;100914.41;3566927;40;20289;-64
2021/12/03 02:26:15;;;;;;;69.57;35.17;;;;;;;2.22;81.69;100914.22;3568207;40;20050;-64
2021/12/03 02:28:47;;;;;;;72.15;35.90;;;;;;;2.22;82.16;100908.94;3568346;40;20370;-64
2021/12/03 02:31:16;;;;;;;71.57;33.83;;;;;;;2.24;81.39;100901.81;3570395;40;20069;-64
2021/12/03 02:33:42;;;;;;;61.00;32.00;;;;;;;2.26;81.58;100914.13;3566350;40;20061;-64
2021/12/03 02:36:09;;;;;;;57.60;30.63;;;;;;;2.17;81.89;100873.72;3565944;40;20056;-63
2021/12/03 02:38:35;;;;;;;49.22;28.70;;;;;;;2.32;82.06;100906.00;3568070;40;20075;-64
2021/12/03 02:41:01;;;;;;;58.13;29.98;;;;;;;2.35;81.33;100907.72;3567730;40;20065;-63
2021/12/03 02:43:27;;;;;;;45.38;28.33;;;;;;;2.32;81.43;100891.88;3568462;40;20127;-63
2021/12/03 02:45:56;;;;;;;48.47;26.13;;;;;;;2.41;81.64;100896.94;3570403;40;20061;-64
2021/12/03 02:48:23;;;;;;;48.72;25.98;;;;;;;2.42;81.20;100898.69;3570642;40;20037;-63
2021/12/03 02:50:48;;;;;;;38.50;23.40;;;;;;;2.42;81.73;100893.38;3569188;40;20057;-64
2021/12/03 02:53:15;;;;;;;38.25;24.92;;;;;;;2.44;80.52;100899.53;3565746;40;20057;-64
2021/12/03 02:55:42;;;;;;;43.92;23.52;;;;;;;2.43;80.60;100892.44;3568060;40;20060;-64
2021/12/03 02:58:09;;;;;;;40.92;24.90;;;;;;;2.46;80.85;100891.50;3567191;40;20049;-64
2021/12/03 03:00:37;;;;;;;42.90;26.17;;;;;;;2.48;81.34;100895.88;3570759;40;20061;-64
2021/12/03 03:03:03;;;;;;;42.72;24.45;;;;;;;2.38;80.98;100869.59;3603244;22;20052;-60
2021/12/03 03:05:29;;;;;;;44.42;25.00;;;;;;;2.43;81.43;100881.84;3575399;40;20307;-60
2021/12/03 03:07:55;;;;;;;46.65;25.17;;;;;;;2.25;80.67;100846.09;3575582;40;20126;-61
2021/12/03 03:10:29;;;;;;;41.50;24.88;;;;;;;2.49;81.11;100870.19;3581810;40;20048;-60
2021/12/03 03:12:57;;;;;;;45.08;26.38;;;;;;;2.48;81.79;100882.59;3575323;40;20437;-64
2021/12/03 03:15:23;;;;;;;51.20;27.88;;;;;;;2.48;81.21;100874.63;3579265;40;20066;-60
2021/12/03 03:17:49;;;;;;;42.78;25.02;;;;;;;2.48;81.29;100864.03;3578286;40;20068;-60
2021/12/03 03:20:17;;;;;;;51.80;27.75;;;;;;;2.44;80.80;100857.06;3578326;40;20064;-61
2021/12/03 03:22:45;;;;;;;52.33;28.58;;;;;;;2.47;80.27;100858.75;3578167;40;20059;-60
2021/12/03 03:25:16;;;;;;;47.25;28.45;;;;;;;2.49;80.72;100865.75;3579070;40;20044;-60
2021/12/03 03:27:43;;;;;;;50.83;28.92;;;;;;;2.51;80.67;100874.56;3581723;40;20079;-60
2021/12/03 03:30:13;;;;;;;53.85;29.48;;;;;;;2.51;81.04;100879.00;3580471;40;20060;-60
2021/12/03 03:32:42;;;;;;;55.10;29.45;;;;;;;2.52;81.01;100876.28;3577358;40;20409;-60
2021/12/03 03:35:08;;;;;;;48.80;27.17;;;;;;;2.52;81.36;100875.41;3577901;40;20056;-61
2021/12/03 03:37:34;;;;;;;55.65;28.15;;;;;;;2.43;81.12;100868.56;3578391;40;20066;-61
2021/12/03 03:40:00;;;;;;;52.90;29.20;;;;;;;2.52;80.90;100886.03;3575885;40;20060;-61
2021/12/03 03:42:26;;;;;;;50.67;28.27;;;;;;;2.51;80.68;100885.16;3578156;40;20440;-60
2021/12/03 03:44:52;;;;;;;48.58;28.52;;;;;;;2.49;81.10;100876.38;3577818;40;20048;-61
2021/12/03 03:47:18;;;;;;;49.40;28.85;;;;;;;2.53;81.38;100862.09;3579659;40;20044;-60
2021/12/03 03:49:43;;;;;;;58.58;29.48;;;;;;;2.55;81.82;100862.06;3578320;40;20045;-61
2021/12/03 03:52:09;;;;;;;58.13;30.10;;;;;;;2.55;81.20;100862.06;3576909;40;20052;-62
2021/12/03 03:54:35;;;;;;;62.25;31.48;;;;;;;2.43;80.72;100839.41;3578817;40;20419;-61
2021/12/03 03:57:03;;;;;;;64.40;31.73;;;;;;;2.36;81.13;100835.19;3582001;40;20051;-61
2021/12/03 03:59:28;;;;;;;63.38;32.60;;;;;;;2.58;81.55;100867.28;3566441;40;20056;-62
2021/12/03 04:01:54;;;;;;;62.80;32.67;;;;;;;2.54;81.42;100850.59;3576767;40;20057;-60
2021/12/03 04:04:21;;;;;;;59.15;30.77;;;;;;;2.61;80.99;100861.03;3576947;40;20582;-63
2021/12/03 04:06:48;;;;;;;57.17;30.23;;;;;;;2.67;81.19;100855.56;3574911;40;20287;-60
2021/12/03 04:09:13;;;;;;;56.80;29.00;;;;;;;2.67;81.21;100852.91;3582705;40;20040;-61
2021/12/03 04:11:39;;;;;;;54.33;27.80;;;;;;;2.60;80.97;100833.63;3579446;40;20344;-62
2021/12/03 04:14:05;;;;;;;49.80;28.60;;;;;;;2.63;81.21;100835.28;3578039;40;20114;-62
2021/12/03 04:16:32;;;;;;;47.90;26.23;;;;;;;2.69;80.87;100833.34;3579773;40;20092;-62
2021/12/03 04:18:59;;;;;;;51.25;27.90;;;;;;;2.71;81.11;100825.34;3579764;40;20061;-61
2021/12/03 04:21:25;;;;;;;47.75;26.38;;;;;;;2.79;81.44;100841.91;3578238;40;20413;-60
2021/12/03 04:23:52;;;;;;;47.78;25.30;;;;;;;2.64;80.78;100826.44;3581583;40;20071;-61
2021/12/03 04:26:18;;;;;;;43.08;25.55;;;;;;;2.39;81.36;100768.78;3581702;40;20074;-61
2021/12/03 04:28:45;;;;;;;48.28;26.50;;;;;;;2.82;81.61;100831.19;3579779;40;20154;-61
2021/12/03 04:31:11;;;;;;;45.83;27.17;;;;;;;2.69;80.67;100821.84;3577579;40;20085;-62
2021/12/03 04:33:36;;;;;;;49.28;25.77;;;;;;;2.88;81.06;100835.44;3577099;40;20411;-61
2021/12/03 04:36:02;;;;;;;46.40;26.17;;;;;;;2.83;81.30;100827.63;3577206;40;20060;-61
2021/12/03 04:38:28;;;;;;;45.85;26.67;;;;;;;2.74;80.90;100814.63;3576917;40;20104;-61
2021/12/03 04:40:54;;;;;;;47.10;27.00;;;;;;;2.87;81.45;100831.94;3578085;40;20358;-62
2021/12/03 04:43:19;;;;;;;51.30;27.35;;;;;;;2.81;80.99;100840.06;3579334;40;20106;-61
2021/12/03 04:45:45;;;;;;;50.05;28.25;;;;;;;2.86;81.56;100858.53;3567464;40;20068;-61
2021/12/03 04:48:12;;;;;;;42.55;26.23;;;;;;;2.82;80.63;100863.03;3579197;40;20056;-61
2021/12/03 04:50:42;;;;;;;41.25;25.35;;;;;;;2.92;80.82;100855.72;3571534;40;20056;-61
2021/12/03 04:53:09;;;;;;;47.95;27.90;;;;;;;2.85;80.38;100838.19;3583653;40;20055;-61
2021/12/03 04:55:36;;;;;;;43.85;26.58;;;;;;;2.81;81.06;100829.47;3579823;40;20110;-62
2021/12/03 04:58:02;;;;;;;40.67;24.15;;;;;;;2.85;81.27;100847.03;3567487;40;20115;-62
2021/12/03 05:00:39;;;;;;;45.92;26.40;;;;;;;2.85;81.14;100835.53;3578195;40;20337;-62
2021/12/03 05:03:07;;;;;;;42.85;24.27;;;;;;;2.78;80.50;100813.63;3578876;40;20060;-62
2021/12/03 05:05:35;;;;;;;37.25;23.17;;;;;;;2.87;80.08;100828.41;3580202;40;20052;-62
2021/12/03 05:08:09;;;;;;;40.97;23.08;;;;;;;2.72;80.56;100804.06;3580994;40;20049;-61
2021/12/03 05:10:40;;;;;;;35.90;21.20;;;;;;;2.78;80.76;100800.34;3578364;40;20059;-61
2021/12/03 05:13:13;;;;;;;32.63;20.02;;;;;;;2.86;80.14;100811.63;3581562;40;20107;-62
2021/12/03 05:15:40;;;;;;;;;;;;;;;2.87;80.39;100823.97;3577741;40;20085;-62
2021/12/03 05:18:08;;;;;;;30.85;18.33;;;;;;;2.87;80.39;100826.63;3580756;40;19932;-61
2021/12/03 05:20:34;;;;;;;28.92;16.63;;;;;;;2.67;80.36;100779.44;3576159;40;20060;-61
2021/12/03 05:23:00;;;;;;;31.33;17.90;;;;;;;2.86;79.63;100811.63;3581648;40;20416;-61
2021/12/03 05:25:27;;;;;;;26.58;16.02;;;;;;;2.78;80.44;100806.53;3580996;40;20048;-61
2021/12/03 05:27:53;;;;;;;31.23;15.90;;;;;;;2.83;80.12;100817.03;3579930;40;20068;-62
2021/12/03 05:30:20;;;;;;;24.13;14.13;;;;;;;2.84;80.12;100804.59;3576859;40;20067;-63
2021/12/03 05:32:47;;;;;;;25.20;13.88;;;;;;;2.83;80.33;100814.38;3569673;40;20041;-62
2021/12/03 05:35:13;;;;;;;24.90;12.80;;;;;;;2.76;79.46;100816.34;3579946;40;20049;-62
2021/12/03 05:37:39;;;;;;;21.58;11.80;;;;;;;2.79;80.45;100815.34;3581136;40;20154;-61
2021/12/03 05:40:08;;;;;;;25.00;12.75;;;;;;;2.79;79.84;100829.53;3579279;40;20068;-60
2021/12/03 05:42:34;;;;;;;24.35;12.45;;;;;;;2.72;79.84;100811.16;3577706;40;20068;-60
2021/12/03 05:45:00;;;;;;;20.70;12.27;;;;;;;2.74;80.01;100819.94;3580705;40;20085;-60
2021/12/03 05:47:26;;;;;;;20.60;11.93;;;;;;;2.71;80.26;100812.06;3579677;40;20364;-60
2021/12/03 05:49:52;;;;;;;27.38;12.27;;;;;;;2.76;80.78;100831.41;3577979;40;20052;-60
2021/12/03 05:52:18;;;;;;;25.13;11.88;;;;;;;2.67;79.93;100821.06;3579635;40;20052;-60
2021/12/03 05:54:45;;;;;;;23.38;11.35;;;;;;;2.59;80.21;100817.75;3576544;40;20398;-60
2021/12/03 05:57:11;;;;;;;24.77;11.20;;;;;;;2.46;80.08;100780.06;3580198;40;20076;-63
2021/12/03 05:59:37;;;;;;;20.35;10.73;;;;;;;2.75;79.77;100822.53;3577179;40;20122;-60
2021/12/03 06:02:04;;;;;;;24.92;11.45;;;;;;;2.57;79.80;100801.88;3581345;40;20375;-60
2021/12/03 06:04:30;;;;;;;16.13;10.02;;;;;;;2.71;80.15;100817.38;3576305;40;20055;-61
2021/12/03 06:06:56;;;;;;;23.55;10.48;;;;;;;2.58;79.33;100789.47;3575994;40;20053;-61
2021/12/03 06:09:22;;;;;;;23.77;10.90;;;;;;;2.79;79.12;100831.28;3584019;40;20061;-63
2021/12/03 06:11:48;;;;;;;24.73;10.60;;;;;;;2.79;79.73;100820.66;3581600;40;20114;-61
2021/12/03 06:14:13;;;;;;;26.13;10.48;;;;;;;2.79;79.52;100818.91;3580012;40;20060;-60
2021/12/03 06:16:39;;;;;;;20.40;9.48;;;;;;;2.82;78.96;100819.69;3581604;40;20057;-62
2021/12/03 06:19:05;;;;;;;17.20;8.82;;;;;;;2.82;79.15;100825.88;3577509;40;20060;-61
2021/12/03 06:21:31;;;;;;;19.35;8.60;;;;;;;2.82;78.10;100815.25;3578511;40;20059;-64
2021/12/03 06:23:57;;;;;;;24.58;9.20;;;;;;;2.84;78.00;100810.78;3576322;40;20064;-62
2021/12/03 06:26:23;;;;;;;18.70;8.77;;;;;;;2.57;77.79;100778.00;3581836;40;20060;-64
2021/12/03 06:28:48;;;;;;;23.75;8.68;;;;;;;2.82;77.97;100815.25;3578877;40;20060;-61
2021/12/03 06:31:14;;;;;;;23.38;8.80;;;;;;;2.78;77.88;100808.31;3577490;40;20060;-64
2021/12/03 06:33:40;;;;;;;20.55;8.80;;;;;;;2.85;77.35;100811.66;3579548;40;20060;-62
2021/12/03 06:36:06;;;;;;;14.18;8.13;;;;;;;2.75;77.29;100800.44;3578452;40;20049;-61
2021/12/03 06:38:33;;;;;;;21.77;8.98;;;;;;;2.84;76.88;100813.44;3575459;40;20056;-62
2021/12/03 06:41:00;;;;;;;20.45;8.82;;;;;;;2.69;76.56;100782.03;3567373;40;20068;-61
2021/12/03 06:43:27;;;;;;;20.83;8.90;;;;;;;2.81;76.21;100800.25;3575114;40;20391;-61
2021/12/03 06:45:53;;;;;;;19.63;8.90;;;;;;;2.82;76.25;100809.09;3579896;40;20098;-61
2021/12/03 06:48:18;;;;;;;19.52;8.40;;;;;;;2.82;76.58;100809.09;3577389;40;20446;-61
2021/12/03 06:50:45;;;;;;;22.63;9.10;;;;;;;2.79;76.69;100815.34;3578522;40;20417;-61
2021/12/03 06:53:14;;;;;;;19.38;8.05;;;;;;;2.76;76.32;100810.16;3580084;40;20071;-61
2021/12/03 06:55:48;;;;;;;16.10;8.48;;;;;;;2.82;76.47;100814.41;3578234;40;20297;-61
2021/12/03 06:58:18;;;;;;;23.70;9.02;;;;;;;2.76;76.05;100805.72;3581453;40;20456;-61
2021/12/03 07:00:48;;;;;;;18.13;7.53;;;;;;;2.76;76.67;100815.47;3581637;40;20052;-61
2021/12/03 07:03:14;;;;;;;17.20;7.88;;;;;;;2.72;76.58;100809.34;3583281;40;20056;-62
2021/12/03 07:05:39;;;;;;;19.75;7.10;;;;;;;2.71;75.70;100812.94;3575212;40;20122;-61
2021/12/03 07:08:05;;;;;;;17.02;7.78;;;;;;;2.59;76.01;100796.50;3578379;40;20052;-61
2021/12/03 07:10:33;;;;;;;15.23;7.22;;;;;;;2.74;75.53;100806.69;3579622;40;20118;-61
2021/12/03 07:12:59;;;;;;;18.92;7.85;;;;;;;2.79;76.73;100810.03;3578026;40;20089;-61
2021/12/03 07:15:25;;;;;;;16.35;7.38;;;;;;;2.79;75.92;100810.03;3577514;40;20053;-60
2021/12/03 07:17:51;;;;;;;17.60;7.18;;;;;;;2.77;75.27;100807.44;3578672;40;20057;-61
2021/12/03 07:20:20;;;;;;;17.85;7.20;;;;;;;2.79;75.57;100807.38;3577591;40;20056;-61
2021/12/03 07:22:46;;;;;;;16.80;7.30;;;;;;;2.76;76.29;100799.53;3578560;40;20069;-62
2021/12/03 07:25:12;;;;;;;19.50;7.05;;;;;;;2.77;75.41;100786.22;3577916;40;20048;-61
2021/12/03 07:27:39;;;;;;;23.77;8.02;;;;;;;2.80;75.78;100790.56;3576096;40;20264;-63
2021/12/03 07:30:06;;;;;;;19.40;6.60;;;;;;;2.69;74.75;100760.81;3575015;40;20118;-61
2021/12/03 07:32:32;;;;;;;17.75;7.45;;;;;;;2.59;75.73;100746.97;3574280;40;20064;-61
2021/12/03 07:34:58;;;;;;;20.17;6.95;;;;;;;2.69;74.95;100771.44;3578805;40;20058;-62
2021/12/03 07:37:24;;;;;;;18.80;7.28;;;;;;;2.83;75.81;100782.50;3580971;40;20064;-60
2021/12/03 07:39:50;;;;;;;20.33;7.60;;;;;;;2.75;75.12;100771.25;3574975;40;20336;-61
2021/12/03 07:42:16;;;;;;;18.75;7.03;;;;;;;2.81;75.03;100789.63;3576427;40;20041;-61
2021/12/03 07:44:43;;;;;;;14.48;6.55;;;;;;;2.88;75.58;100803.59;3575473;40;20503;-62
2021/12/03 07:47:09;;;;;;;19.83;6.35;;;;;;;2.86;75.35;100798.34;3578870;40;20065;-60
2021/12/03 07:49:36;;;;;;;21.13;6.75;;;;;;;2.86;75.38;100793.03;3581592;40;20089;-60
2021/12/03 07:52:03;;;;;;;19.25;6.72;;;;;;;2.73;75.46;100760.69;3585538;40;20298;-61
2021/12/03 07:54:29;;;;;;;18.05;6.35;;;;;;;2.91;75.69;100783.13;3576583;40;20049;-60
2021/12/03 07:56:54;;;;;;;19.88;6.60;;;;;;;2.86;75.02;100779.75;3574825;40;20383;-61
2021/12/03 07:59:20;;;;;;;20.65;6.00;;;;;;;2.95;75.29;100783.91;3574950;40;20052;-61
2021/12/03 08:01:46;;;;;;;21.60;6.40;;;;;;;2.90;74.95;100781.41;3578571;40;20065;-60
2021/12/03 08:04:14;;;;;;;18.15;6.53;;;;;;;2.94;75.18;100790.13;3574267;40;20068;-60
2021/12/03 08:06:42;;;;;;;19.75;6.30;;;;;;;2.97;75.59;100788.25;3575081;40;20069;-61
2021/12/03 08:09:09;;;;;;;20.92;6.47;;;;;;;2.98;75.35;100779.38;3577801;40;20053;-61
2021/12/03 08:11:38;;;;;;;26.90;6.57;;;;;;;3.00;75.47;100787.28;3577917;40;20064;-61
2021/12/03 08:14:05;;;;;;;16.65;5.45;;;;;;;3.03;75.62;100788.06;3577836;40;20059;-61
2021/12/03 08:16:31;;;;;;;18.52;6.28;;;;;;;3.00;75.92;100788.16;3577632;40;20072;-61
2021/12/03 08:18:56;;;;;;;19.70;5.85;;;;;;;3.08;75.24;100781.75;3580823;40;20414;-61
2021/12/03 08:21:22;;;;;;;18.20;5.57;;;;;;;3.00;75.77;100756.28;3578792;40;20048;-61
2021/12/03 08:23:48;;;;;;;15.20;5.70;;;;;;;2.98;75.64;100747.53;3581143;40;20059;-61
2021/12/03 08:26:16;;;;;;;13.38;4.65;;;;;;;3.15;75.79;100783.28;3579269;40;20053;-60
2021/12/03 08:28:41;;;;;;;19.05;5.65;;;;;;;3.10;74.52;100771.94;3576537;40;20134;-61
2021/12/03 08:31:11;;;;;;;20.73;5.55;;;;;;;3.18;75.11;100785.84;3573985;40;20060;-61
2021/12/03 08:33:37;;;;;;;16.20;5.15;;;;;;;3.28;75.04;100792.59;3578224;40;20045;-61
2021/12/03 08:36:03;;;;;;;19.60;5.18;;;;;;;3.23;74.87;100783.91;3565857;40;20051;-61
2021/12/03 08:38:29;;;;;;;19.48;4.95;;;;;;;3.26;74.61;100789.97;3577455;40;20045;-61
2021/12/03 08:40:55;;;;;;;19.95;4.97;;;;;;;3.26;74.81;100783.78;3574758;40;20414;-60
2021/12/03 08:43:20;;;;;;;19.63;4.97;;;;;;;3.33;74.61;100772.06;3576029;40;20048;-61
2021/12/03 08:45:52;;;;;;;17.33;4.60;;;;;;;3.39;74.43;100779.81;3576446;40;20060;-61
2021/12/03 08:48:18;;;;;;;22.65;5.80;;;;;;;3.30;74.14;100774.84;3581531;40;20307;-61
2021/12/03 08:50:51;;;;;;;16.50;5.55;;;;;;;3.30;74.00;100771.28;3579926;40;20041;-61
2021/12/03 08:54:48;;;;;;;15.80;5.32;;;;;;;3.33;74.72;100763.22;3579329;40;20052;-61
2021/12/03 08:56:11;;;;;;;18.60;5.63;;;;;;;3.47;74.17;100777.78;3579521;40;20065;-61
2021/12/03 08:58:36;;;;;;;17.40;5.55;;;;;;;3.44;73.84;100764.59;3578124;40;20072;-61
2021/12/03 09:01:02;;;;;;;18.73;4.57;;;;;;;3.46;74.05;100752.16;3565930;40;20110;-61
2021/12/03 09:03:28;;;;;;;18.10;5.20;;;;;;;3.46;74.72;100775.19;3576847;40;20303;-61
2021/12/03 09:05:53;;;;;;;15.40;5.03;;;;;;;3.51;74.10;100751.97;3613007;22;20398;-62
2021/12/03 09:08:19;;;;;;;20.50;5.32;;;;;;;3.61;73.73;100768.47;3577369;40;20060;-65
2021/12/03 09:10:44;;;;;;;19.13;5.65;;;;;;;3.64;74.07;100766.56;3578430;40;20096;-65
2021/12/03 09:13:10;;;;;;;20.27;5.55;;;;;;;3.61;74.06;100765.81;3571502;40;20096;-64
2021/12/03 09:15:43;;;;;;;20.33;5.72;;;;;;;3.70;73.97;100776.13;3577070;40;20060;-65
2021/12/03 09:20:46;;;;;;;28.90;7.28;;;;;;;3.68;73.77;100764.72;3576419;40;20049;-65
2021/12/03 09:26:07;;;;;;;24.65;6.35;;;;;;;3.80;74.94;100753.63;3581274;40;20063;-65
2021/12/03 09:28:34;;;;;;;22.83;6.50;;;;;;;3.84;74.39;100757.94;3569593;40;20137;-65
2021/12/03 09:31:00;;;;;;;21.35;6.35;;;;;;;3.85;74.31;100746.38;3575112;40;20045;-65
2021/12/03 09:33:29;;;;;;;18.67;7.15;;;;;;;3.79;74.63;100729.75;3576242;40;20078;-65
2021/12/03 09:36:00;;;;;;;16.00;5.57;;;;;;;3.20;74.48;100630.84;3575227;40;20261;-65
2021/12/03 09:38:30;;;;;;;15.13;5.47;;;;;;;3.99;73.54;100758.28;3576131;40;20067;-64
2021/12/03 09:41:00;;;;;;;14.70;5.63;;;;;;;3.98;73.83;100748.59;3575482;40;20048;-65
2021/12/03 09:43:26;;;;;;;21.50;4.97;;;;;;;4.01;73.97;100752.00;3579985;40;20275;-64
2021/12/03 09:45:57;;;;;;;16.13;4.72;;;;;;;3.97;74.30;100738.88;3576903;40;20114;-65
2021/12/03 09:48:46;;;;;;;19.40;4.82;;;;;;;4.03;73.98;100743.97;3577687;40;20380;-65
2021/12/03 09:51:12;;;;;;;16.65;4.95;;;;;;;4.02;73.95;100728.94;3578031;40;20076;-64
2021/12/03 09:56:28;;;;;;;18.05;5.45;;;;;;;4.10;74.14;100702.94;3555375;40;20068;-65
2021/12/03 10:01:45;;;;;;;13.85;4.47;;;;;;;4.14;74.32;100709.88;3576037;40;20113;-65
2021/12/03 10:08:00;;;;;;;14.77;4.75;;;;;;;4.14;74.46;100708.06;3578726;40;20230;-65
2021/12/03 10:12:42;;;;;;;16.77;5.07;;;;;;;4.19;74.26;100703.47;3576794;40;20051;-66
2021/12/03 10:15:14;;;;;;;14.98;4.57;;;;;;;4.21;74.37;100695.41;3578763;40;20049;-63
2021/12/03 10:17:47;;;;;;;20.67;5.15;;;;;;;4.25;73.93;100706.78;3577173;40;20044;-62
2021/12/03 10:20:28;;;;;;;14.65;4.63;;;;;;;4.23;74.40;100690.03;3578135;40;20060;-63
2021/12/03 10:36:46;;;;;;;15.77;4.70;;;;;;;4.53;73.40;100654.22;3577464;40;20052;-65
2021/12/03 10:48:02;;;;;;;11.18;5.78;;;;;;;4.67;73.23;100629.75;3578420;40;20412;-63
2021/12/03 11:01:12;;;;;;;14.45;6.18;;;;;;;4.88;72.45;100588.91;3576321;40;20060;-63
2021/12/03 11:11:14;;;;;;;17.20;5.68;;;;;;;4.87;71.76;100565.00;3577322;40;20071;-63
2021/12/03 11:28:31;;;;;;;16.00;5.72;;;;;;;5.23;70.15;100543.91;3574432;40;20072;-62
2021/12/03 11:42:11;;;;;;;13.90;5.28;;;;;;;5.47;69.47;100525.06;3577828;40;20391;-64
2021/12/03 12:02:02;;;;;;;9.35;4.65;;;;;;;5.81;68.47;100500.38;3577808;40;20052;-66
2021/12/03 12:16:59;;;;;;;10.85;4.47;;;;;;;5.85;66.56;100466.41;3550399;40;20146;-64
2021/12/03 12:37:51;;;;;;;7.97;3.58;;;;;;;5.92;66.38;100419.81;3577907;40;20122;-65
2021/12/03 13:04:41;;;;;;;;;;;;;;;5.92;65.80;100387.81;3575978;40;20052;-65
2021/12/03 13:09:39;;;;;;;10.52;3.20;;;;;;;5.28;65.26;100290.53;3576859;40;20052;-66
2021/12/03 13:12:34;;;;;;;7.72;3.50;;;;;;;5.92;65.84;100374.47;3569136;40;20051;-65
2021/12/03 13:15:35;;;;;;;6.88;3.33;;;;;;;5.88;65.67;100378.25;3576849;40;20060;-65
2021/12/03 13:21:28;;;;;;;9.85;2.75;;;;;;;5.88;65.40;100381.78;3576112;40;20310;-64
2021/12/03 13:32:32;;;;;;;5.70;2.55;;;;;;;5.85;65.01;100357.06;3579102;40;20067;-65
2021/12/03 13:36:09;;;;;;;5.05;2.88;;;;;;;5.80;66.01;100357.28;3576547;40;20113;-66
2021/12/03 14:06:24;;;;;;;8.77;2.90;;;;;;;5.43;69.12;100304.91;3574775;40;20111;-65
2021/12/03 14:39:56;;;;;;;4.43;2.97;;;;;;;5.38;72.26;100302.47;3575627;40;20060;-65
2021/12/03 14:45:01;;;;;;;7.95;3.22;;;;;;;5.28;73.00;100304.72;3576612;40;20045;-65
2021/12/03 14:47:44;;;;;;;10.05;3.15;;;;;;;5.36;73.43;100312.34;3568228;40;20407;-65
2021/12/03 14:53:13;;;;;;;8.20;3.05;;;;;;;5.35;73.26;100314.13;3575534;40;20064;-65
2021/12/03 14:55:43;;;;;;;7.57;3.20;;;;;;;5.30;73.50;100316.16;3575599;40;20055;-66
2021/12/03 15:01:16;;;;;;;8.38;3.35;;;;;;;5.30;74.04;100300.19;3577475;40;20121;-65
2021/12/03 15:03:59;;;;;;;9.45;3.80;;;;;;;4.61;74.15;100194.28;3575134;40;20101;-65
2021/12/03 15:06:38;;;;;;;4.40;3.40;;;;;;;5.20;73.97;100287.34;3618529;22;20052;-60
2021/12/03 15:14:49;;;;;;;5.85;2.67;;;;;;;5.34;74.12;100311.56;3576504;40;20052;-61
2021/12/03 15:17:56;;;;;;;8.02;3.53;;;;;;;5.34;74.22;100315.06;3565090;40;20096;-61
2021/12/03 15:20:26;;;;;;;5.13;3.17;;;;;;;5.24;74.33;100300.47;3571519;40;20126;-61
2021/12/03 15:23:16;;;;;;;6.30;3.08;;;;;;;5.35;74.47;100302.63;3571267;40;20553;-60
2021/12/03 15:25:56;;;;;;;8.52;3.40;;;;;;;5.35;74.75;100302.63;3570853;40;20102;-61
2021/12/03 15:31:17;;;;;;;;;;;;;;;5.33;75.07;100289.38;3565519;40;20060;-61
2021/12/03 15:36:20;;;;;;;6.70;3.00;;;;;;;5.29;75.71;100285.09;3570421;40;20053;-60